createdAt,value
2019-03-28T00:00:11.021Z,5.50
2019-03-28T00:02:41.745Z,5.50
2019-03-28T00:05:12.679Z,5.50
2019-03-28T00:07:43.450Z,5.50
2019-03-28T00:10:14.282Z,5.40
2019-03-28T00:12:44.845Z,5.50
2019-03-28T00:15:15.445Z,5.50
2019-03-28T00:17:45.944Z,5.40
2019-03-28T00:20:16.907Z,5.40
2019-03-28T00:23:12.456Z,5.50
2019-03-28T00:25:43.398Z,5.40
2019-03-28T00:28:14.202Z,5.40
2019-03-28T00:30:51.012Z,5.40
2019-03-28T00:33:21.775Z,5.30
2019-03-28T00:35:52.535Z,5.40
2019-03-28T00:38:23.106Z,5.30
2019-03-28T00:40:53.952Z,5.30
2019-03-28T00:43:25.259Z,5.20
2019-03-28T00:45:56.258Z,5.20
2019-03-28T00:48:29.802Z,5.20
2019-03-28T00:51:00.639Z,5.20
2019-03-28T00:53:31.360Z,5.30
2019-03-28T00:56:02.313Z,5.30
2019-03-28T00:58:33.301Z,5.30
2019-03-28T01:01:05.169Z,5.30
2019-03-28T01:03:36.471Z,5.30
2019-03-28T01:06:07.382Z,5.30
2019-03-28T01:08:38.488Z,5.30
2019-03-28T01:11:09.080Z,5.30
2019-03-28T01:13:39.951Z,5.30
2019-03-28T01:16:10.553Z,5.30
2019-03-28T01:18:41.354Z,5.30
2019-03-28T01:21:12.011Z,5.30
2019-03-28T01:23:42.816Z,5.30
2019-03-28T01:26:13.468Z,5.20
2019-03-28T01:28:44.058Z,5.20
2019-03-28T01:31:14.699Z,5.20
2019-03-28T01:33:45.473Z,5.20
2019-03-28T01:36:16.172Z,5.20
2019-03-28T01:38:46.618Z,5.30
2019-03-28T01:41:17.084Z,5.20
2019-03-28T01:43:47.832Z,5.20
2019-03-28T01:46:18.652Z,5.10
2019-03-28T01:48:49.324Z,5.20
2019-03-28T01:51:20.115Z,5.20
2019-03-28T01:53:50.668Z,5.20
2019-03-28T01:56:21.381Z,5.20
2019-03-28T01:58:52.096Z,5.20
2019-03-28T02:01:22.883Z,5.20
2019-03-28T02:03:53.488Z,5.20
2019-03-28T02:06:24.279Z,5.20
2019-03-28T02:08:54.744Z,5.10
2019-03-28T02:11:25.489Z,5.10
2019-03-28T02:13:56.200Z,5.10
2019-03-28T02:16:27.104Z,5.10
2019-03-28T02:18:58.206Z,5.10
2019-03-28T02:21:28.901Z,5.10
2019-03-28T02:23:59.594Z,5.10
2019-03-28T02:26:30.327Z,5.10
2019-03-28T02:29:01.177Z,5.10
2019-03-28T02:31:31.874Z,5.10
2019-03-28T02:34:02.549Z,5.20
2019-03-28T02:36:33.351Z,5.10
2019-03-28T02:39:05.108Z,5.10
2019-03-28T02:41:36.080Z,5.10
2019-03-28T02:44:08.008Z,5.10
2019-03-28T02:46:38.842Z,5.10
2019-03-28T02:49:09.395Z,5.10
2019-03-28T02:51:40.097Z,5.10
2019-03-28T02:54:10.847Z,5.00
2019-03-28T02:56:41.930Z,5.10
2019-03-28T02:59:13.033Z,5.10
2019-03-28T03:02:04.487Z,5.00
2019-03-28T03:04:34.986Z,5.00
2019-03-28T03:07:05.522Z,5.00
2019-03-28T03:09:36.429Z,5.00
2019-03-28T03:12:07.221Z,5.00
2019-03-28T03:14:38.009Z,5.00
2019-03-28T03:17:08.774Z,5.00
2019-03-28T03:19:39.611Z,5.00
2019-03-28T03:22:10.289Z,5.00
2019-03-28T03:24:41.114Z,5.00
2019-03-28T03:27:11.825Z,5.00
2019-03-28T03:29:42.516Z,5.00
2019-03-28T03:32:13.096Z,5.00
2019-03-28T03:34:45.723Z,5.00
2019-03-28T03:37:16.238Z,5.00
2019-03-28T03:39:46.755Z,4.90
2019-03-28T03:42:17.535Z,4.90
2019-03-28T03:44:48.409Z,4.90
2019-03-28T03:47:19.767Z,4.90
2019-03-28T03:49:50.673Z,4.90
2019-03-28T03:52:21.409Z,5.00
2019-03-28T03:54:52.216Z,5.00
2019-03-28T03:57:23.106Z,5.00
2019-03-28T03:59:53.856Z,5.00
2019-03-28T04:02:24.707Z,5.00
2019-03-28T04:04:56.847Z,5.00
2019-03-28T04:07:27.749Z,5.00
2019-03-28T04:09:58.287Z,5.00
2019-03-28T04:12:29.123Z,5.10
2019-03-28T04:14:59.619Z,5.00
2019-03-28T04:17:30.372Z,5.00
2019-03-28T04:20:01.279Z,5.00
2019-03-28T04:22:32.208Z,5.00
2019-03-28T04:25:03.010Z,5.00
2019-03-28T04:27:33.755Z,5.00
2019-03-28T04:30:04.507Z,5.00
2019-03-28T04:32:35.245Z,5.00
2019-03-28T04:35:05.777Z,5.00
2019-03-28T04:37:36.617Z,5.00
2019-03-28T04:40:08.513Z,5.00
2019-03-28T04:42:39.689Z,5.00
2019-03-28T04:45:10.513Z,4.90
2019-03-28T04:47:41.331Z,4.90
2019-03-28T04:50:12.051Z,5.00
2019-03-28T04:52:42.775Z,4.90
2019-03-28T04:55:13.654Z,4.90
2019-03-28T04:57:44.412Z,4.80
2019-03-28T05:00:15.247Z,4.80
2019-03-28T05:02:46.185Z,4.70
2019-03-28T05:05:17.201Z,4.60
2019-03-28T05:07:47.844Z,4.60
2019-03-28T05:10:18.627Z,4.60
2019-03-28T05:12:49.316Z,4.60
2019-03-28T05:15:20.597Z,4.60
2019-03-28T05:17:51.362Z,4.60
2019-03-28T05:20:22.067Z,4.60
2019-03-28T05:22:52.811Z,4.60
2019-03-28T05:25:24.311Z,4.80
2019-03-28T05:27:55.112Z,4.70
2019-03-28T05:30:25.986Z,4.70
2019-03-28T05:32:56.493Z,4.80
2019-03-28T05:35:27.258Z,4.80
2019-03-28T05:37:58.056Z,4.80
2019-03-28T05:40:28.644Z,4.70
2019-03-28T05:42:59.278Z,4.80
2019-03-28T05:45:30.072Z,4.80
2019-03-28T05:48:00.749Z,4.80
2019-03-28T05:50:31.583Z,4.80
2019-03-28T05:53:20.936Z,4.80
2019-03-28T05:55:51.680Z,4.90
2019-03-28T05:58:22.561Z,4.90
2019-03-28T06:00:53.105Z,4.90
2019-03-28T06:03:24.482Z,4.90
2019-03-28T06:05:54.983Z,5.00
2019-03-28T06:08:25.804Z,5.00
2019-03-28T06:10:56.474Z,5.00
2019-03-28T06:13:27.201Z,5.00
2019-03-28T06:15:58.047Z,5.10
2019-03-28T06:18:28.845Z,5.10
2019-03-28T06:20:59.605Z,5.10
2019-03-28T06:23:30.604Z,5.10
2019-03-28T06:26:01.150Z,5.20
2019-03-28T06:28:31.974Z,5.20
2019-03-28T06:31:02.564Z,5.20
2019-03-28T06:33:33.174Z,5.20
2019-03-28T06:36:04.001Z,5.30
2019-03-28T06:38:34.725Z,5.30
2019-03-28T06:41:05.300Z,5.30
2019-03-28T06:43:36.085Z,5.40
2019-03-28T06:46:06.846Z,5.40
2019-03-28T06:48:37.631Z,5.50
2019-03-28T06:51:08.540Z,5.60
2019-03-28T06:53:39.379Z,5.70
2019-03-28T06:56:09.918Z,5.70
2019-03-28T06:58:40.944Z,5.70
2019-03-28T07:01:11.787Z,5.70
2019-03-28T07:03:42.557Z,5.70
2019-03-28T07:06:13.362Z,5.70
2019-03-28T07:08:44.266Z,5.70
2019-03-28T07:11:14.821Z,5.70
2019-03-28T07:13:45.383Z,5.70
2019-03-28T07:16:15.921Z,5.70
2019-03-28T07:18:46.626Z,5.70
2019-03-28T07:21:18.246Z,5.80
2019-03-28T07:23:48.865Z,5.80
2019-03-28T07:26:19.394Z,6.00
2019-03-28T07:28:50.019Z,6.10
2019-03-28T07:31:20.679Z,6.10
2019-03-28T07:33:51.361Z,6.00
2019-03-28T07:36:21.928Z,6.10
2019-03-28T07:38:52.658Z,6.10
2019-03-28T07:41:23.470Z,6.20
2019-03-28T07:43:54.004Z,6.30
2019-03-28T07:46:24.604Z,6.40
2019-03-28T07:48:55.339Z,6.40
2019-03-28T07:51:26.095Z,6.40
2019-03-28T07:53:56.996Z,6.50
2019-03-28T07:56:27.594Z,6.50
2019-03-28T07:58:58.486Z,6.60
2019-03-28T08:01:29.271Z,6.70
2019-03-28T08:04:00.189Z,6.80
2019-03-28T08:06:30.744Z,6.80
2019-03-28T08:09:01.327Z,6.80
2019-03-28T08:11:31.955Z,6.80
2019-03-28T08:14:02.677Z,6.90
2019-03-28T08:16:33.240Z,6.90
2019-03-28T08:19:04.069Z,7.00
2019-03-28T08:21:34.587Z,7.00
2019-03-28T08:24:05.273Z,7.10
2019-03-28T08:26:36.303Z,7.20
2019-03-28T08:29:06.892Z,7.20
2019-03-28T08:31:40.703Z,7.30
2019-03-28T08:34:11.614Z,7.30
2019-03-28T08:36:42.253Z,7.40
2019-03-28T08:39:12.786Z,7.40
2019-03-28T08:41:43.419Z,7.50
2019-03-28T08:44:13.847Z,7.50
2019-03-28T08:46:44.455Z,7.50
2019-03-28T08:49:15.024Z,7.40
2019-03-28T08:51:45.608Z,7.50
2019-03-28T08:54:16.175Z,7.50
2019-03-28T08:56:46.770Z,7.50
2019-03-28T08:59:17.407Z,7.70
2019-03-28T09:04:36.622Z,7.70
2019-03-28T09:07:07.179Z,7.80
2019-03-28T09:09:37.825Z,7.90
2019-03-28T09:12:08.368Z,7.90
2019-03-28T09:14:54.307Z,8.00
2019-03-28T09:17:24.912Z,8.00
2019-03-28T09:19:55.777Z,8.20
2019-03-28T09:22:26.585Z,8.20
2019-03-28T09:24:57.460Z,8.20
2019-03-28T09:27:28.230Z,8.20
2019-03-28T09:29:59.182Z,8.20
2019-03-28T09:32:29.898Z,8.40
2019-03-28T09:35:00.500Z,8.40
2019-03-28T09:37:31.095Z,8.50
2019-03-28T09:40:01.695Z,8.40
2019-03-28T09:42:32.239Z,8.50
2019-03-28T09:45:02.829Z,8.50
2019-03-28T09:47:33.765Z,8.50
2019-03-28T09:50:04.357Z,8.80
2019-03-28T09:52:44.212Z,8.90
2019-03-28T09:55:14.774Z,9.00
2019-03-28T09:57:45.370Z,9.20
2019-03-28T10:00:16.762Z,9.20
2019-03-28T10:02:47.591Z,9.30
2019-03-28T10:05:18.239Z,9.40
2019-03-28T10:07:48.848Z,9.60
2019-03-28T10:10:19.429Z,9.70
2019-03-28T10:12:49.985Z,9.50
2019-03-28T10:15:20.772Z,9.50
2019-03-28T10:17:51.343Z,9.60
2019-03-28T10:20:21.958Z,9.70
2019-03-28T10:22:52.573Z,9.80
2019-03-28T10:25:23.178Z,9.90
2019-03-28T10:27:53.807Z,10.10
2019-03-28T10:30:38.521Z,10.20
2019-03-28T10:33:09.274Z,10.20
2019-03-28T10:35:40.062Z,10.20
2019-03-28T10:38:10.895Z,10.20
2019-03-28T10:40:41.567Z,10.20
2019-03-28T10:43:12.110Z,10.10
2019-03-28T10:45:42.700Z,10.00
2019-03-28T10:48:13.432Z,10.00
2019-03-28T10:50:45.994Z,10.00
2019-03-28T10:53:16.735Z,9.80
2019-03-28T10:55:47.439Z,9.70
2019-03-28T10:58:19.299Z,9.80
2019-03-28T11:00:50.405Z,9.70
2019-03-28T11:03:21.183Z,9.60
2019-03-28T11:05:52.053Z,9.60
2019-03-28T11:08:26.785Z,9.60
2019-03-28T11:10:58.986Z,9.50
2019-03-28T11:13:29.916Z,9.50
2019-03-28T11:16:00.728Z,9.50
2019-03-28T11:18:31.411Z,9.70
2019-03-28T11:21:01.996Z,9.70
2019-03-28T11:23:32.874Z,9.70
2019-03-28T11:26:03.436Z,9.70
2019-03-28T11:28:34.206Z,9.70
2019-03-28T11:31:05.073Z,9.60
2019-03-28T11:33:35.959Z,9.70
2019-03-28T11:36:06.815Z,9.70
2019-03-28T11:38:37.661Z,9.70
2019-03-28T11:41:08.823Z,9.70
2019-03-28T11:43:39.783Z,9.60
2019-03-28T11:46:10.794Z,9.60
2019-03-28T11:48:41.651Z,9.70
2019-03-28T11:51:12.607Z,9.70
2019-03-28T11:53:43.399Z,9.70
2019-03-28T11:56:15.254Z,9.80
2019-03-28T11:58:45.883Z,9.80
2019-03-28T12:01:16.756Z,9.90
2019-03-28T12:03:47.747Z,9.90
2019-03-28T12:06:18.307Z,9.90
2019-03-28T12:08:49.071Z,10.00
2019-03-28T12:11:21.899Z,10.10
2019-03-28T12:13:52.742Z,10.00
2019-03-28T12:16:23.472Z,10.00
2019-03-28T12:18:57.401Z,10.00
2019-03-28T12:21:28.196Z,10.10
2019-03-28T12:23:59.025Z,10.20
2019-03-28T12:26:29.809Z,10.20
2019-03-28T12:29:00.386Z,10.20
2019-03-28T12:31:33.238Z,10.30
2019-03-28T12:34:03.954Z,10.40
2019-03-28T12:36:34.805Z,10.40
2019-03-28T12:39:07.101Z,10.40
2019-03-28T12:41:37.716Z,10.40
2019-03-28T12:44:08.333Z,10.50
2019-03-28T12:46:38.872Z,10.50
2019-03-28T12:49:09.484Z,10.60
2019-03-28T12:51:40.296Z,10.60
2019-03-28T12:54:11.324Z,10.60
2019-03-28T12:56:42.177Z,10.70
2019-03-28T12:59:12.802Z,10.70
2019-03-28T13:01:43.612Z,10.80
2019-03-28T13:04:14.766Z,10.80
2019-03-28T13:06:45.537Z,10.90
2019-03-28T13:09:16.356Z,11.00
2019-03-28T13:11:47.137Z,11.10
2019-03-28T13:14:17.988Z,11.10
2019-03-28T13:16:48.664Z,11.10
2019-03-28T13:19:19.541Z,11.20
2019-03-28T13:21:50.373Z,11.30
2019-03-28T13:24:21.193Z,11.30
2019-03-28T13:26:51.957Z,11.30
2019-03-28T13:29:22.543Z,11.30
2019-03-28T13:31:53.089Z,11.30
2019-03-28T13:34:23.629Z,11.30
2019-03-28T13:36:54.490Z,11.30
2019-03-28T13:39:25.088Z,11.30
2019-03-28T13:41:55.628Z,11.40
2019-03-28T13:44:26.274Z,11.30
2019-03-28T13:46:58.436Z,11.20
2019-03-28T13:49:29.426Z,11.20
2019-03-28T13:52:00.359Z,11.20
2019-03-28T13:54:30.979Z,11.20
2019-03-28T13:57:01.731Z,11.10
2019-03-28T13:59:35.380Z,11.10
2019-03-28T14:02:06.929Z,11.20
2019-03-28T14:04:37.542Z,11.20
2019-03-28T14:07:08.377Z,11.10
2019-03-28T14:09:38.958Z,11.20
2019-03-28T14:12:09.894Z,11.20
2019-03-28T14:14:40.476Z,11.20
2019-03-28T14:17:11.326Z,11.10
2019-03-28T14:19:41.849Z,11.10
2019-03-28T14:22:12.371Z,11.10
2019-03-28T14:24:42.853Z,11.10
2019-03-28T14:27:13.799Z,11.10
2019-03-28T14:29:44.400Z,11.10
2019-03-28T14:32:15.240Z,11.10
2019-03-28T14:34:45.892Z,11.10
2019-03-28T14:37:17.249Z,11.10
2019-03-28T14:39:49.373Z,11.10
2019-03-28T14:42:20.285Z,11.10
2019-03-28T14:44:50.739Z,11.10
2019-03-28T14:47:21.312Z,11.10
2019-03-28T14:49:52.194Z,11.10
2019-03-28T14:52:22.775Z,11.10
2019-03-28T14:54:53.556Z,11.10
2019-03-28T14:57:24.515Z,11.10
2019-03-28T14:59:55.149Z,11.10
2019-03-28T15:02:25.712Z,11.20
2019-03-28T15:04:56.368Z,11.20
2019-03-28T15:07:30.090Z,11.20
2019-03-28T15:10:01.953Z,11.20
2019-03-28T15:12:33.034Z,11.20
2019-03-28T15:15:03.634Z,11.20
2019-03-28T15:17:34.554Z,11.20
2019-03-28T15:20:05.289Z,11.10
2019-03-28T15:22:36.190Z,11.10
2019-03-28T15:25:07.266Z,11.10
2019-03-28T15:27:38.126Z,11.20
2019-03-28T15:30:08.932Z,11.10
2019-03-28T15:32:39.719Z,11.10
2019-03-28T15:35:10.591Z,11.10
2019-03-28T15:37:41.545Z,11.00
2019-03-28T15:40:12.388Z,11.10
2019-03-28T15:42:43.275Z,11.00
2019-03-28T15:45:14.128Z,11.00
2019-03-28T15:47:45.006Z,11.00
2019-03-28T15:50:16.041Z,11.00
2019-03-28T15:52:46.808Z,11.00
2019-03-28T15:55:17.555Z,11.00
2019-03-28T15:57:48.365Z,11.00
2019-03-28T16:00:18.960Z,10.90
2019-03-28T16:02:50.013Z,10.90
2019-03-28T16:05:20.699Z,10.80
2019-03-28T16:07:51.342Z,10.80
2019-03-28T16:10:22.134Z,10.80
2019-03-28T16:12:52.957Z,10.90
2019-03-28T16:15:23.712Z,10.90
2019-03-28T16:17:57.665Z,10.90
2019-03-28T16:20:40.007Z,10.90
2019-03-28T16:23:10.928Z,11.00
2019-03-28T16:25:41.609Z,11.00
2019-03-28T16:28:16.131Z,11.00
2019-03-28T16:30:46.792Z,11.10
2019-03-28T16:33:17.432Z,11.20
2019-03-28T16:35:48.166Z,11.30
2019-03-28T16:38:19.640Z,11.30
2019-03-28T16:40:50.639Z,11.40
2019-03-28T16:43:21.382Z,11.40
2019-03-28T16:45:52.051Z,11.40
2019-03-28T16:48:22.625Z,11.30
2019-03-28T16:50:53.339Z,11.20
2019-03-28T16:53:24.036Z,11.10
2019-03-28T16:55:55.140Z,11.00
2019-03-28T16:58:26.178Z,11.00
2019-03-28T17:00:56.824Z,10.90
2019-03-28T17:03:27.659Z,10.80
2019-03-28T17:06:01.016Z,10.80
2019-03-28T17:08:32.003Z,10.80
2019-03-28T17:11:02.818Z,10.80
2019-03-28T17:13:33.801Z,10.70
2019-03-28T17:16:05.071Z,10.60
2019-03-28T17:18:35.827Z,10.60
2019-03-28T17:21:06.745Z,10.60
2019-03-28T17:23:37.315Z,10.60
2019-03-28T17:26:09.112Z,10.50
2019-03-28T17:28:39.664Z,10.40
2019-03-28T17:31:10.231Z,10.40
2019-03-28T17:33:40.873Z,10.50
2019-03-28T17:36:11.541Z,10.40
2019-03-28T17:38:42.294Z,10.40
2019-03-28T17:41:12.993Z,10.40
2019-03-28T17:43:44.014Z,10.30
2019-03-28T17:46:14.673Z,10.20
2019-03-28T17:48:45.426Z,10.10
2019-03-28T17:51:16.117Z,10.00
2019-03-28T17:53:46.877Z,10.00
2019-03-28T17:56:17.580Z,10.00
2019-03-28T17:58:55.191Z,9.90
2019-03-28T18:01:25.772Z,9.90
2019-03-28T18:03:56.424Z,9.90
2019-03-28T18:06:27.056Z,9.80
2019-03-28T18:08:57.793Z,9.70
2019-03-28T18:11:28.449Z,9.70
2019-03-28T18:13:59.013Z,9.60
2019-03-28T18:16:29.814Z,9.60
2019-03-28T18:19:00.520Z,9.60
2019-03-28T18:21:31.382Z,9.50
2019-03-28T18:24:03.555Z,9.50
2019-03-28T18:26:34.262Z,9.50
2019-03-28T18:29:05.041Z,9.60
2019-03-28T18:31:49.374Z,9.60
2019-03-28T18:34:12.066Z,9.60
2019-03-28T18:36:41.274Z,9.60
2019-03-28T18:39:11.996Z,9.50
2019-03-28T18:41:42.831Z,9.50
2019-03-28T18:44:13.664Z,9.50
2019-03-28T18:46:44.509Z,9.50
2019-03-28T18:49:15.158Z,9.50
2019-03-28T18:51:45.762Z,9.40
2019-03-28T18:54:16.443Z,9.30
2019-03-28T18:56:47.792Z,9.30
2019-03-28T18:59:18.909Z,9.20
2019-03-28T19:01:49.782Z,9.20
2019-03-28T19:04:20.456Z,9.10
2019-03-28T19:06:51.423Z,9.20
2019-03-28T19:09:22.008Z,9.20
2019-03-28T19:11:52.677Z,9.20
2019-03-28T19:14:23.508Z,9.30
2019-03-28T19:16:54.116Z,9.30
2019-03-28T19:19:38.337Z,9.30
2019-03-28T19:21:57.998Z,9.30
2019-03-28T19:24:28.598Z,9.20
2019-03-28T19:26:59.421Z,9.20
2019-03-28T19:29:30.217Z,9.20
2019-03-28T19:32:01.104Z,9.20
2019-03-28T19:34:32.674Z,9.20
2019-03-28T19:37:03.688Z,9.20
2019-03-28T19:39:34.422Z,9.20
2019-03-28T19:42:05.127Z,9.20
2019-03-28T19:44:35.891Z,9.30
2019-03-28T19:47:06.549Z,9.30
2019-03-28T19:49:37.340Z,9.30
2019-03-28T19:52:08.038Z,9.20
2019-03-28T19:54:38.933Z,9.20
2019-03-28T19:57:09.547Z,9.20
2019-03-28T19:59:40.461Z,9.20
2019-03-28T20:02:14.101Z,9.10
2019-03-28T20:04:43.629Z,9.00
2019-03-28T20:07:21.663Z,9.00
2019-03-28T20:09:46.493Z,8.90
2019-03-28T20:12:17.514Z,8.80
2019-03-28T20:14:48.213Z,8.80
2019-03-28T20:17:18.780Z,8.80
2019-03-28T20:19:49.816Z,8.70
2019-03-28T20:22:20.533Z,8.70
2019-03-28T20:24:51.219Z,8.60
2019-03-28T20:27:22.982Z,8.60
2019-03-28T20:29:53.667Z,8.50
2019-03-28T20:32:24.500Z,8.50
2019-03-28T20:34:56.021Z,8.50
2019-03-28T20:37:26.860Z,8.50
2019-03-28T20:39:58.192Z,8.50
2019-03-28T20:42:29.506Z,8.60
2019-03-28T20:45:00.503Z,8.70
2019-03-28T20:47:31.421Z,8.70
2019-03-28T20:50:02.323Z,8.80
2019-03-28T20:52:33.146Z,8.80
2019-03-28T20:55:03.824Z,8.70
2019-03-28T20:57:34.454Z,8.70
2019-03-28T21:00:08.530Z,8.60
2019-03-28T21:02:38.078Z,8.60
2019-03-28T21:05:09.367Z,8.70
2019-03-28T21:07:40.056Z,8.60
2019-03-28T21:10:18.073Z,8.60
2019-03-28T21:12:48.683Z,8.60
2019-03-28T21:15:19.846Z,8.50
2019-03-28T21:17:51.110Z,8.50
2019-03-28T21:20:21.904Z,8.50
2019-03-28T21:22:52.489Z,8.50
2019-03-28T21:25:23.252Z,8.50
2019-03-28T21:27:54.025Z,8.60
2019-03-28T21:30:27.070Z,8.60
2019-03-28T21:32:57.963Z,8.60
2019-03-28T21:35:29.163Z,8.60
2019-03-28T21:37:59.655Z,8.60
2019-03-28T21:40:30.243Z,8.60
2019-03-28T21:43:01.195Z,8.60
2019-03-28T21:45:31.932Z,8.60
2019-03-28T21:48:02.478Z,8.60
2019-03-28T21:50:32.999Z,8.60
2019-03-28T21:53:03.639Z,8.60
2019-03-28T21:55:34.483Z,8.70
2019-03-28T21:58:05.274Z,8.60
2019-03-28T22:00:35.809Z,8.70
2019-03-28T22:03:06.384Z,8.70
2019-03-28T22:05:36.944Z,8.70
2019-03-28T22:08:07.533Z,8.70
2019-03-28T22:10:38.067Z,8.60
2019-03-28T22:13:11.978Z,8.60
2019-03-28T22:15:41.172Z,8.60
2019-03-28T22:18:11.717Z,8.60
2019-03-28T22:20:42.292Z,8.60
2019-03-28T22:23:13.701Z,8.60
2019-03-28T22:25:44.430Z,8.60
2019-03-28T22:28:15.001Z,8.60
2019-03-28T22:30:45.648Z,8.60
2019-03-28T22:33:16.226Z,8.60
2019-03-28T22:35:46.947Z,8.60
2019-03-28T22:38:17.630Z,8.60
2019-03-28T22:40:48.149Z,8.50
2019-03-28T22:43:19.048Z,8.50
2019-03-28T22:45:49.552Z,8.50
2019-03-28T22:48:20.399Z,8.40
2019-03-28T22:50:50.920Z,8.50
2019-03-28T22:53:21.449Z,8.50
2019-03-28T22:55:51.960Z,8.40
2019-03-28T22:58:22.821Z,8.30
2019-03-28T23:00:57.279Z,8.20
2019-03-28T23:03:27.988Z,8.20
2019-03-28T23:05:58.504Z,8.20
2019-03-28T23:08:29.265Z,8.30
2019-03-28T23:10:59.823Z,8.40
2019-03-28T23:13:30.520Z,8.40
2019-03-28T23:16:03.697Z,8.20
2019-03-28T23:18:33.760Z,8.10
2019-03-28T23:21:04.554Z,8.10
2019-03-28T23:23:35.418Z,8.10
2019-03-28T23:26:05.905Z,8.10
2019-03-28T23:28:36.450Z,8.10
2019-03-28T23:31:07.301Z,8.10
2019-03-28T23:33:37.812Z,8.20
2019-03-28T23:36:08.301Z,8.20
2019-03-28T23:38:38.861Z,8.20
2019-03-28T23:41:09.558Z,8.20
2019-03-28T23:43:40.106Z,8.20
2019-03-28T23:46:11.762Z,8.30
2019-03-28T23:48:42.379Z,8.20
2019-03-28T23:51:12.943Z,8.20
2019-03-28T23:53:43.704Z,8.30
2019-03-28T23:56:14.639Z,8.30
2019-03-28T23:58:45.114Z,8.20
